sensor_id;sensor_type;location;lat;lon;timestamp;temperature;humidity
20777;DHT22;10548;47.504;8.248;2024-02-26T00:02:02;6.90;99.90
20777;DHT22;10548;47.504;8.248;2024-02-26T00:04:29;6.90;99.90
20777;DHT22;10548;47.504;8.248;2024-02-26T00:06:57;6.90;99.90
20777;DHT22;10548;47.504;8.248;2024-02-26T00:09:25;6.90;99.90
20777;DHT22;10548;47.504;8.248;2024-02-26T00:11:52;6.80;99.90
20777;DHT22;10548;47.504;8.248;2024-02-26T00:14:20;6.80;99.90
20777;DHT22;10548;47.504;8.248;2024-02-26T00:16:47;6.90;99.90
20777;DHT22;10548;47.504;8.248;2024-02-26T00:19:15;6.90;99.90
20777;DHT22;10548;47.504;8.248;2024-02-26T00:21:42;6.90;99.90
20777;DHT22;10548;47.504;8.248;2024-02-26T00:24:09;6.80;99.90
20777;DHT22;10548;47.504;8.248;2024-02-26T00:26:37;6.90;99.90
20777;DHT22;10548;47.504;8.248;2024-02-26T00:29:04;6.90;99.90
20777;DHT22;10548;47.504;8.248;2024-02-26T00:31:31;6.90;99.90
20777;DHT22;10548;47.504;8.248;2024-02-26T00:33:59;7.00;99.90
20777;DHT22;10548;47.504;8.248;2024-02-26T00:36:26;7.00;99.90
20777;DHT22;10548;47.504;8.248;2024-02-26T00:38:54;7.10;99.90
20777;DHT22;10548;47.504;8.248;2024-02-26T00:41:21;7.10;99.90
20777;DHT22;10548;47.504;8.248;2024-02-26T00:43:48;7.00;99.90
20777;DHT22;10548;47.504;8.248;2024-02-26T00:46:16;7.00;99.90
20777;DHT22;10548;47.504;8.248;2024-02-26T00:48:43;7.00;99.90
20777;DHT22;10548;47.504;8.248;2024-02-26T00:51:11;7.00;99.90
20777;DHT22;10548;47.504;8.248;2024-02-26T00:53:38;7.00;99.90
20777;DHT22;10548;47.504;8.248;2024-02-26T00:56:05;7.00;99.90
20777;DHT22;10548;47.504;8.248;2024-02-26T00:58:33;6.90;99.90
20777;DHT22;10548;47.504;8.248;2024-02-26T01:01:01;6.90;99.90
20777;DHT22;10548;47.504;8.248;2024-02-26T01:03:28;6.90;99.90
20777;DHT22;10548;47.504;8.248;2024-02-26T01:05:56;7.00;99.90
20777;DHT22;10548;47.504;8.248;2024-02-26T01:08:25;7.10;99.90
20777;DHT22;10548;47.504;8.248;2024-02-26T01:10:52;7.20;99.90
20777;DHT22;10548;47.504;8.248;2024-02-26T01:13:20;7.30;99.90
20777;DHT22;10548;47.504;8.248;2024-02-26T01:15:47;7.30;99.90
20777;DHT22;10548;47.504;8.248;2024-02-26T01:18:15;7.40;99.90
20777;DHT22;10548;47.504;8.248;2024-02-26T01:20:42;7.40;99.90
20777;DHT22;10548;47.504;8.248;2024-02-26T01:23:09;7.30;99.90
20777;DHT22;10548;47.504;8.248;2024-02-26T01:25:37;7.30;99.90
20777;DHT22;10548;47.504;8.248;2024-02-26T01:28:05;7.30;99.90
20777;DHT22;10548;47.504;8.248;2024-02-26T01:30:32;7.30;99.90
20777;DHT22;10548;47.504;8.248;2024-02-26T01:32:59;7.30;99.90
20777;DHT22;10548;47.504;8.248;2024-02-26T01:35:27;7.40;99.90
20777;DHT22;10548;47.504;8.248;2024-02-26T01:37:55;7.40;99.90
20777;DHT22;10548;47.504;8.248;2024-02-26T01:40:22;7.40;99.90
20777;DHT22;10548;47.504;8.248;2024-02-26T01:42:52;7.40;99.90
20777;DHT22;10548;47.504;8.248;2024-02-26T01:45:19;7.30;99.90
20777;DHT22;10548;47.504;8.248;2024-02-26T01:47:52;7.40;99.90
20777;DHT22;10548;47.504;8.248;2024-02-26T01:50:20;7.40;99.90
20777;DHT22;10548;47.504;8.248;2024-02-26T01:52:50;7.50;99.90
20777;DHT22;10548;47.504;8.248;2024-02-26T01:55:18;7.50;99.90
20777;DHT22;10548;47.504;8.248;2024-02-26T01:57:48;7.50;99.90
20777;DHT22;10548;47.504;8.248;2024-02-26T02:00:20;7.50;99.90
20777;DHT22;10548;47.504;8.248;2024-02-26T02:02:49;7.60;99.90
20777;DHT22;10548;47.504;8.248;2024-02-26T02:05:17;7.50;99.90
20777;DHT22;10548;47.504;8.248;2024-02-26T02:07:47;7.50;99.90
20777;DHT22;10548;47.504;8.248;2024-02-26T02:10:16;7.60;99.90
20777;DHT22;10548;47.504;8.248;2024-02-26T02:12:45;7.60;99.90
20777;DHT22;10548;47.504;8.248;2024-02-26T02:15:12;7.60;99.90
20777;DHT22;10548;47.504;8.248;2024-02-26T02:17:40;7.60;99.90
20777;DHT22;10548;47.504;8.248;2024-02-26T02:20:09;7.70;99.90
20777;DHT22;10548;47.504;8.248;2024-02-26T02:22:39;7.60;99.90
20777;DHT22;10548;47.504;8.248;2024-02-26T02:25:07;7.50;99.90
20777;DHT22;10548;47.504;8.248;2024-02-26T02:27:34;7.50;99.90
20777;DHT22;10548;47.504;8.248;2024-02-26T02:30:02;7.50;99.90
20777;DHT22;10548;47.504;8.248;2024-02-26T02:32:30;7.40;99.90
20777;DHT22;10548;47.504;8.248;2024-02-26T02:34:58;7.40;99.90
20777;DHT22;10548;47.504;8.248;2024-02-26T02:37:26;7.40;99.90
20777;DHT22;10548;47.504;8.248;2024-02-26T02:39:53;7.40;99.90
20777;DHT22;10548;47.504;8.248;2024-02-26T02:42:22;7.50;99.90
20777;DHT22;10548;47.504;8.248;2024-02-26T02:44:49;7.40;99.90
20777;DHT22;10548;47.504;8.248;2024-02-26T02:47:16;7.30;99.90
20777;DHT22;10548;47.504;8.248;2024-02-26T02:49:44;7.40;99.90
20777;DHT22;10548;47.504;8.248;2024-02-26T02:52:11;7.40;99.90
20777;DHT22;10548;47.504;8.248;2024-02-26T02:54:38;7.20;99.90
20777;DHT22;10548;47.504;8.248;2024-02-26T02:57:09;7.10;99.90
20777;DHT22;10548;47.504;8.248;2024-02-26T02:59:37;7.10;99.90
20777;DHT22;10548;47.504;8.248;2024-02-26T03:02:05;7.10;99.90
20777;DHT22;10548;47.504;8.248;2024-02-26T03:04:33;7.10;99.90
20777;DHT22;10548;47.504;8.248;2024-02-26T03:07:01;7.20;99.90
20777;DHT22;10548;47.504;8.248;2024-02-26T03:09:28;7.00;99.90
20777;DHT22;10548;47.504;8.248;2024-02-26T03:11:56;6.40;99.90
20777;DHT22;10548;47.504;8.248;2024-02-26T03:14:23;6.20;99.90
20777;DHT22;10548;47.504;8.248;2024-02-26T03:16:54;6.10;99.90
20777;DHT22;10548;47.504;8.248;2024-02-26T03:19:22;6.10;99.90
20777;DHT22;10548;47.504;8.248;2024-02-26T03:21:52;6.10;99.90
20777;DHT22;10548;47.504;8.248;2024-02-26T03:24:19;6.20;99.90
20777;DHT22;10548;47.504;8.248;2024-02-26T03:26:47;6.20;99.90
20777;DHT22;10548;47.504;8.248;2024-02-26T03:29:14;6.20;99.90
20777;DHT22;10548;47.504;8.248;2024-02-26T03:31:41;6.20;99.90
20777;DHT22;10548;47.504;8.248;2024-02-26T03:34:09;6.30;99.90
20777;DHT22;10548;47.504;8.248;2024-02-26T03:36:36;6.50;99.90
20777;DHT22;10548;47.504;8.248;2024-02-26T03:39:04;6.50;99.90
20777;DHT22;10548;47.504;8.248;2024-02-26T03:41:35;6.60;99.90
20777;DHT22;10548;47.504;8.248;2024-02-26T03:44:02;6.60;99.90
20777;DHT22;10548;47.504;8.248;2024-02-26T03:46:30;6.60;99.90
20777;DHT22;10548;47.504;8.248;2024-02-26T03:48:57;6.50;99.90
20777;DHT22;10548;47.504;8.248;2024-02-26T03:51:25;6.60;99.90
20777;DHT22;10548;47.504;8.248;2024-02-26T03:53:53;6.50;99.90
20777;DHT22;10548;47.504;8.248;2024-02-26T03:56:21;6.50;99.90
20777;DHT22;10548;47.504;8.248;2024-02-26T03:58:49;6.50;99.90
20777;DHT22;10548;47.504;8.248;2024-02-26T04:01:16;6.60;99.90
20777;DHT22;10548;47.504;8.248;2024-02-26T04:03:44;6.60;99.90
20777;DHT22;10548;47.504;8.248;2024-02-26T04:06:11;6.60;99.90
20777;DHT22;10548;47.504;8.248;2024-02-26T04:08:41;6.60;99.90
20777;DHT22;10548;47.504;8.248;2024-02-26T04:11:09;6.70;99.90
20777;DHT22;10548;47.504;8.248;2024-02-26T04:13:37;6.70;99.90
20777;DHT22;10548;47.504;8.248;2024-02-26T04:16:07;6.70;99.90
20777;DHT22;10548;47.504;8.248;2024-02-26T04:18:34;6.60;99.90
20777;DHT22;10548;47.504;8.248;2024-02-26T04:21:02;6.70;99.90
20777;DHT22;10548;47.504;8.248;2024-02-26T04:23:32;6.70;99.90
20777;DHT22;10548;47.504;8.248;2024-02-26T04:25:59;6.70;99.90
20777;DHT22;10548;47.504;8.248;2024-02-26T04:28:26;6.70;99.90
20777;DHT22;10548;47.504;8.248;2024-02-26T04:30:56;6.70;99.90
20777;DHT22;10548;47.504;8.248;2024-02-26T04:33:23;6.70;99.90
20777;DHT22;10548;47.504;8.248;2024-02-26T04:35:50;6.70;99.90
20777;DHT22;10548;47.504;8.248;2024-02-26T04:38:18;6.70;99.90
20777;DHT22;10548;47.504;8.248;2024-02-26T04:40:45;6.80;99.90
20777;DHT22;10548;47.504;8.248;2024-02-26T04:43:13;6.80;99.90
20777;DHT22;10548;47.504;8.248;2024-02-26T04:45:41;6.70;99.90
20777;DHT22;10548;47.504;8.248;2024-02-26T04:48:08;6.80;99.90
20777;DHT22;10548;47.504;8.248;2024-02-26T04:50:36;6.80;99.90
20777;DHT22;10548;47.504;8.248;2024-02-26T04:53:03;6.80;99.90
20777;DHT22;10548;47.504;8.248;2024-02-26T04:55:31;6.90;99.90
20777;DHT22;10548;47.504;8.248;2024-02-26T04:57:58;6.80;99.90
20777;DHT22;10548;47.504;8.248;2024-02-26T05:00:25;6.80;99.90
20777;DHT22;10548;47.504;8.248;2024-02-26T05:02:52;6.80;99.90
20777;DHT22;10548;47.504;8.248;2024-02-26T05:05:20;6.80;99.90
20777;DHT22;10548;47.504;8.248;2024-02-26T05:07:47;6.80;99.90
20777;DHT22;10548;47.504;8.248;2024-02-26T05:10:14;6.90;99.90
20777;DHT22;10548;47.504;8.248;2024-02-26T05:12:42;6.90;99.90
20777;DHT22;10548;47.504;8.248;2024-02-26T05:15:10;6.90;99.90
20777;DHT22;10548;47.504;8.248;2024-02-26T05:17:38;6.80;99.90
20777;DHT22;10548;47.504;8.248;2024-02-26T05:20:06;6.80;99.90
20777;DHT22;10548;47.504;8.248;2024-02-26T05:22:35;6.90;99.90
20777;DHT22;10548;47.504;8.248;2024-02-26T05:25:02;6.90;99.90
20777;DHT22;10548;47.504;8.248;2024-02-26T05:27:30;6.90;99.90
20777;DHT22;10548;47.504;8.248;2024-02-26T05:29:57;6.60;99.90
20777;DHT22;10548;47.504;8.248;2024-02-26T05:32:25;6.50;99.90
20777;DHT22;10548;47.504;8.248;2024-02-26T05:34:52;6.50;99.90
20777;DHT22;10548;47.504;8.248;2024-02-26T05:37:20;6.50;99.90
20777;DHT22;10548;47.504;8.248;2024-02-26T05:39:47;6.60;99.90
20777;DHT22;10548;47.504;8.248;2024-02-26T05:42:14;6.60;99.90
20777;DHT22;10548;47.504;8.248;2024-02-26T05:44:42;6.60;99.90
20777;DHT22;10548;47.504;8.248;2024-02-26T05:47:09;6.70;99.90
20777;DHT22;10548;47.504;8.248;2024-02-26T05:49:36;6.80;99.90
20777;DHT22;10548;47.504;8.248;2024-02-26T05:52:05;6.80;99.90
20777;DHT22;10548;47.504;8.248;2024-02-26T05:54:32;6.90;99.90
20777;DHT22;10548;47.504;8.248;2024-02-26T05:56:59;7.00;99.90
20777;DHT22;10548;47.504;8.248;2024-02-26T05:59:27;7.00;99.90
20777;DHT22;10548;47.504;8.248;2024-02-26T06:01:54;7.00;99.90
20777;DHT22;10548;47.504;8.248;2024-02-26T06:04:21;7.00;99.90
20777;DHT22;10548;47.504;8.248;2024-02-26T06:06:49;6.90;99.90
20777;DHT22;10548;47.504;8.248;2024-02-26T06:09:17;6.90;99.90
20777;DHT22;10548;47.504;8.248;2024-02-26T06:11:44;6.90;99.90
20777;DHT22;10548;47.504;8.248;2024-02-26T06:14:11;6.90;99.90
20777;DHT22;10548;47.504;8.248;2024-02-26T06:16:40;6.80;99.90
20777;DHT22;10548;47.504;8.248;2024-02-26T06:19:07;6.80;99.90
20777;DHT22;10548;47.504;8.248;2024-02-26T06:21:39;6.70;99.90
20777;DHT22;10548;47.504;8.248;2024-02-26T06:24:06;6.60;99.90
20777;DHT22;10548;47.504;8.248;2024-02-26T06:26:33;6.80;99.90
20777;DHT22;10548;47.504;8.248;2024-02-26T06:29:01;6.80;99.90
20777;DHT22;10548;47.504;8.248;2024-02-26T06:31:28;6.80;99.90
20777;DHT22;10548;47.504;8.248;2024-02-26T06:33:56;6.70;99.90
20777;DHT22;10548;47.504;8.248;2024-02-26T06:36:23;6.70;99.90
20777;DHT22;10548;47.504;8.248;2024-02-26T06:38:51;6.80;99.90
20777;DHT22;10548;47.504;8.248;2024-02-26T06:41:21;6.80;99.90
20777;DHT22;10548;47.504;8.248;2024-02-26T06:43:54;6.90;99.90
20777;DHT22;10548;47.504;8.248;2024-02-26T06:46:22;6.90;99.90
20777;DHT22;10548;47.504;8.248;2024-02-26T06:48:50;7.00;99.90
20777;DHT22;10548;47.504;8.248;2024-02-26T06:51:22;7.10;99.90
20777;DHT22;10548;47.504;8.248;2024-02-26T06:53:49;7.10;99.90
20777;DHT22;10548;47.504;8.248;2024-02-26T06:56:17;7.20;99.90
20777;DHT22;10548;47.504;8.248;2024-02-26T06:58:44;7.20;99.90
20777;DHT22;10548;47.504;8.248;2024-02-26T07:01:12;7.20;99.90
20777;DHT22;10548;47.504;8.248;2024-02-26T07:03:42;7.20;99.90
20777;DHT22;10548;47.504;8.248;2024-02-26T07:06:10;7.30;99.90
20777;DHT22;10548;47.504;8.248;2024-02-26T07:08:40;7.30;99.90
20777;DHT22;10548;47.504;8.248;2024-02-26T07:11:08;7.30;99.90
20777;DHT22;10548;47.504;8.248;2024-02-26T07:13:36;7.30;99.90
20777;DHT22;10548;47.504;8.248;2024-02-26T07:16:06;7.30;99.90
20777;DHT22;10548;47.504;8.248;2024-02-26T07:18:33;7.30;99.90
20777;DHT22;10548;47.504;8.248;2024-02-26T07:21:04;7.30;99.90
20777;DHT22;10548;47.504;8.248;2024-02-26T07:23:31;7.20;99.90
20777;DHT22;10548;47.504;8.248;2024-02-26T07:25:59;7.30;99.90
20777;DHT22;10548;47.504;8.248;2024-02-26T07:28:26;7.40;99.90
20777;DHT22;10548;47.504;8.248;2024-02-26T07:30:54;7.50;99.90
20777;DHT22;10548;47.504;8.248;2024-02-26T07:33:21;7.60;99.90
20777;DHT22;10548;47.504;8.248;2024-02-26T07:35:49;7.70;99.90
20777;DHT22;10548;47.504;8.248;2024-02-26T07:38:16;7.80;99.90
20777;DHT22;10548;47.504;8.248;2024-02-26T07:40:58;7.90;99.90
20777;DHT22;10548;47.504;8.248;2024-02-26T07:43:29;7.90;99.90
20777;DHT22;10548;47.504;8.248;2024-02-26T07:45:57;7.70;99.90
20777;DHT22;10548;47.504;8.248;2024-02-26T07:48:25;7.40;99.90
20777;DHT22;10548;47.504;8.248;2024-02-26T07:50:52;7.60;99.90
20777;DHT22;10548;47.504;8.248;2024-02-26T07:53:20;7.70;99.90
20777;DHT22;10548;47.504;8.248;2024-02-26T07:55:47;7.80;99.90
20777;DHT22;10548;47.504;8.248;2024-02-26T07:58:14;7.50;99.90
20777;DHT22;10548;47.504;8.248;2024-02-26T08:00:42;7.70;99.90
20777;DHT22;10548;47.504;8.248;2024-02-26T08:03:09;8.10;99.90
20777;DHT22;10548;47.504;8.248;2024-02-26T08:05:37;8.50;99.90
20777;DHT22;10548;47.504;8.248;2024-02-26T08:08:07;8.80;99.90
20777;DHT22;10548;47.504;8.248;2024-02-26T08:10:35;8.70;99.90
20777;DHT22;10548;47.504;8.248;2024-02-26T08:13:02;8.80;99.90
20777;DHT22;10548;47.504;8.248;2024-02-26T08:15:33;8.80;99.90
20777;DHT22;10548;47.504;8.248;2024-02-26T08:18:05;8.80;99.90
20777;DHT22;10548;47.504;8.248;2024-02-26T08:20:32;9.10;99.90
20777;DHT22;10548;47.504;8.248;2024-02-26T08:23:00;8.80;99.90
20777;DHT22;10548;47.504;8.248;2024-02-26T08:25:27;9.00;99.90
20777;DHT22;10548;47.504;8.248;2024-02-26T08:27:54;9.20;99.90
20777;DHT22;10548;47.504;8.248;2024-02-26T08:30:22;9.30;99.90
20777;DHT22;10548;47.504;8.248;2024-02-26T08:32:49;9.60;99.90
20777;DHT22;10548;47.504;8.248;2024-02-26T08:35:18;9.40;99.90
20777;DHT22;10548;47.504;8.248;2024-02-26T08:37:47;9.60;99.90
20777;DHT22;10548;47.504;8.248;2024-02-26T08:40:15;9.50;99.90
20777;DHT22;10548;47.504;8.248;2024-02-26T08:42:42;9.20;99.90
20777;DHT22;10548;47.504;8.248;2024-02-26T08:45:10;9.30;99.90
20777;DHT22;10548;47.504;8.248;2024-02-26T08:47:38;9.20;99.90
20777;DHT22;10548;47.504;8.248;2024-02-26T08:50:06;9.10;99.90
20777;DHT22;10548;47.504;8.248;2024-02-26T08:52:33;9.10;99.90
20777;DHT22;10548;47.504;8.248;2024-02-26T08:55:01;9.20;99.90
20777;DHT22;10548;47.504;8.248;2024-02-26T08:57:28;9.30;99.90
20777;DHT22;10548;47.504;8.248;2024-02-26T08:59:55;9.20;99.90
20777;DHT22;10548;47.504;8.248;2024-02-26T09:02:23;9.20;99.90
20777;DHT22;10548;47.504;8.248;2024-02-26T09:04:50;9.30;99.90
20777;DHT22;10548;47.504;8.248;2024-02-26T09:07:21;9.30;99.90
20777;DHT22;10548;47.504;8.248;2024-02-26T09:09:48;9.30;99.90
20777;DHT22;10548;47.504;8.248;2024-02-26T09:12:16;9.40;99.90
20777;DHT22;10548;47.504;8.248;2024-02-26T09:14:43;9.40;99.90
20777;DHT22;10548;47.504;8.248;2024-02-26T09:17:11;9.10;99.90
20777;DHT22;10548;47.504;8.248;2024-02-26T09:19:38;9.10;99.90
20777;DHT22;10548;47.504;8.248;2024-02-26T09:22:06;9.30;99.90
20777;DHT22;10548;47.504;8.248;2024-02-26T09:24:34;9.40;99.90
20777;DHT22;10548;47.504;8.248;2024-02-26T09:27:01;9.40;99.90
20777;DHT22;10548;47.504;8.248;2024-02-26T09:29:28;9.30;99.90
20777;DHT22;10548;47.504;8.248;2024-02-26T09:31:56;9.40;99.90
20777;DHT22;10548;47.504;8.248;2024-02-26T09:34:23;9.70;99.90
20777;DHT22;10548;47.504;8.248;2024-02-26T09:36:50;9.60;99.90
20777;DHT22;10548;47.504;8.248;2024-02-26T09:39:18;9.60;99.90
20777;DHT22;10548;47.504;8.248;2024-02-26T09:41:49;9.60;99.90
20777;DHT22;10548;47.504;8.248;2024-02-26T09:44:19;9.70;99.90
20777;DHT22;10548;47.504;8.248;2024-02-26T09:46:51;9.60;99.90
20777;DHT22;10548;47.504;8.248;2024-02-26T09:49:20;9.80;99.90
20777;DHT22;10548;47.504;8.248;2024-02-26T09:51:49;9.90;99.90
20777;DHT22;10548;47.504;8.248;2024-02-26T09:54:17;9.80;99.90
20777;DHT22;10548;47.504;8.248;2024-02-26T09:56:46;9.80;99.90
20777;DHT22;10548;47.504;8.248;2024-02-26T09:59:29;9.90;99.90
20777;DHT22;10548;47.504;8.248;2024-02-26T10:02:08;10.20;99.90
20777;DHT22;10548;47.504;8.248;2024-02-26T10:04:37;10.10;99.90
20777;DHT22;10548;47.504;8.248;2024-02-26T10:07:10;10.10;99.90
20777;DHT22;10548;47.504;8.248;2024-02-26T10:09:38;10.20;99.90
20777;DHT22;10548;47.504;8.248;2024-02-26T10:12:08;10.20;99.90
20777;DHT22;10548;47.504;8.248;2024-02-26T10:14:37;10.40;99.90
20777;DHT22;10548;47.504;8.248;2024-02-26T10:17:07;10.30;99.90
20777;DHT22;10548;47.504;8.248;2024-02-26T10:19:35;10.20;99.90
20777;DHT22;10548;47.504;8.248;2024-02-26T10:22:05;10.30;99.90
20777;DHT22;10548;47.504;8.248;2024-02-26T10:24:33;10.40;99.90
20777;DHT22;10548;47.504;8.248;2024-02-26T10:27:02;10.40;99.90
20777;DHT22;10548;47.504;8.248;2024-02-26T10:29:30;10.10;99.90
20777;DHT22;10548;47.504;8.248;2024-02-26T10:31:58;10.30;99.90
20777;DHT22;10548;47.504;8.248;2024-02-26T10:34:26;10.30;99.90
20777;DHT22;10548;47.504;8.248;2024-02-26T10:36:55;10.60;99.90
20777;DHT22;10548;47.504;8.248;2024-02-26T10:39:23;10.70;99.90
20777;DHT22;10548;47.504;8.248;2024-02-26T10:41:50;10.90;99.90
20777;DHT22;10548;47.504;8.248;2024-02-26T10:44:18;11.00;99.90
20777;DHT22;10548;47.504;8.248;2024-02-26T10:46:47;10.90;99.90
20777;DHT22;10548;47.504;8.248;2024-02-26T10:49:17;10.90;99.90
20777;DHT22;10548;47.504;8.248;2024-02-26T10:51:54;10.60;99.90
20777;DHT22;10548;47.504;8.248;2024-02-26T10:54:25;10.50;99.90
20777;DHT22;10548;47.504;8.248;2024-02-26T10:56:56;10.60;99.90
20777;DHT22;10548;47.504;8.248;2024-02-26T10:59:23;10.50;99.90
20777;DHT22;10548;47.504;8.248;2024-02-26T11:01:52;10.50;99.90
20777;DHT22;10548;47.504;8.248;2024-02-26T11:04:20;10.40;99.90
20777;DHT22;10548;47.504;8.248;2024-02-26T11:06:49;10.40;99.90
20777;DHT22;10548;47.504;8.248;2024-02-26T11:09:17;10.50;99.90
20777;DHT22;10548;47.504;8.248;2024-02-26T11:11:47;10.60;99.90
20777;DHT22;10548;47.504;8.248;2024-02-26T11:14:16;10.50;99.90
20777;DHT22;10548;47.504;8.248;2024-02-26T11:16:43;10.30;99.90
20777;DHT22;10548;47.504;8.248;2024-02-26T11:19:11;10.30;99.90
20777;DHT22;10548;47.504;8.248;2024-02-26T11:21:41;10.40;99.90
20777;DHT22;10548;47.504;8.248;2024-02-26T11:24:14;10.40;99.90
20777;DHT22;10548;47.504;8.248;2024-02-26T11:27:03;10.60;99.90
20777;DHT22;10548;47.504;8.248;2024-02-26T11:29:39;10.60;99.90
20777;DHT22;10548;47.504;8.248;2024-02-26T11:32:09;10.60;99.90
20777;DHT22;10548;47.504;8.248;2024-02-26T11:34:37;10.40;99.90
20777;DHT22;10548;47.504;8.248;2024-02-26T11:37:13;10.70;99.90
20777;DHT22;10548;47.504;8.248;2024-02-26T11:39:41;11.00;99.90
20777;DHT22;10548;47.504;8.248;2024-02-26T11:42:09;11.10;99.90
20777;DHT22;10548;47.504;8.248;2024-02-26T11:44:38;11.20;99.90
20777;DHT22;10548;47.504;8.248;2024-02-26T11:47:13;11.40;99.90
20777;DHT22;10548;47.504;8.248;2024-02-26T11:49:40;11.60;99.90
20777;DHT22;10548;47.504;8.248;2024-02-26T11:52:09;11.60;99.90
20777;DHT22;10548;47.504;8.248;2024-02-26T11:54:52;11.70;99.90
20777;DHT22;10548;47.504;8.248;2024-02-26T11:57:38;11.80;99.90
20777;DHT22;10548;47.504;8.248;2024-02-26T12:00:15;11.80;99.90
20777;DHT22;10548;47.504;8.248;2024-02-26T12:02:50;11.60;99.90
20777;DHT22;10548;47.504;8.248;2024-02-26T12:05:26;11.60;99.90
20777;DHT22;10548;47.504;8.248;2024-02-26T12:08:03;11.80;99.90
20777;DHT22;10548;47.504;8.248;2024-02-26T12:10:38;11.70;99.90
20777;DHT22;10548;47.504;8.248;2024-02-26T12:13:11;11.50;99.90
20777;DHT22;10548;47.504;8.248;2024-02-26T12:15:55;11.40;99.90
20777;DHT22;10548;47.504;8.248;2024-02-26T12:18:24;11.70;99.90
20777;DHT22;10548;47.504;8.248;2024-02-26T12:21:04;11.70;99.90
20777;DHT22;10548;47.504;8.248;2024-02-26T12:23:32;11.40;99.90
20777;DHT22;10548;47.504;8.248;2024-02-26T12:26:00;11.50;99.90
20777;DHT22;10548;47.504;8.248;2024-02-26T12:28:30;11.50;99.90
20777;DHT22;10548;47.504;8.248;2024-02-26T12:30:58;12.30;99.90
20777;DHT22;10548;47.504;8.248;2024-02-26T12:33:27;12.40;94.70
20777;DHT22;10548;47.504;8.248;2024-02-26T12:35:56;12.80;94.60
20777;DHT22;10548;47.504;8.248;2024-02-26T12:38:24;12.30;95.50
20777;DHT22;10548;47.504;8.248;2024-02-26T12:40:51;12.60;95.50
20777;DHT22;10548;47.504;8.248;2024-02-26T12:43:19;12.90;91.20
20777;DHT22;10548;47.504;8.248;2024-02-26T12:45:47;13.10;86.40
20777;DHT22;10548;47.504;8.248;2024-02-26T12:48:15;13.80;83.20
20777;DHT22;10548;47.504;8.248;2024-02-26T12:50:46;13.70;80.10
